Time;durP1;ratioP1;P1;durP2;ratioP2;P2;SDS_P1;SDS_P2;PMS_P1;PMS_P2;Temp;Humidity;BMP_temperature;BMP_pressure;BME280_temperature;BME280_humidity;BME280_pressure;Samples;Min_cycle;Max_cycle;Signal;HPM_P1;HPM_P2
2023/04/29 00:00:11;;;;;;;26.90;18.60;;;13.30;99.90;;;;;;5054316;28;20445;-57
2023/04/29 00:02:38;;;;;;;23.17;17.70;;;13.20;99.90;;;;;;5054002;28;20480;-57
2023/04/29 00:05:07;;;;;;;24.50;18.60;;;13.20;99.90;;;;;;5054003;28;20461;-57
2023/04/29 00:07:33;;;;;;;24.80;18.73;;;13.20;99.90;;;;;;5053787;28;20445;-57
2023/04/29 00:10:00;;;;;;;24.87;18.73;;;13.20;99.90;;;;;;5053948;28;20430;-56
2023/04/29 00:12:29;;;;;;;22.50;18.40;;;13.20;99.90;;;;;;5053889;28;20446;-57
2023/04/29 00:14:55;;;;;;;25.83;18.40;;;13.20;99.90;;;;;;5053882;28;20474;-57
2023/04/29 00:17:22;;;;;;;26.67;19.27;;;13.10;99.90;;;;;;5053756;28;20453;-57
2023/04/29 00:19:49;;;;;;;25.53;19.47;;;13.00;99.90;;;;;;5053938;28;20461;-57
2023/04/29 00:22:17;;;;;;;26.77;20.00;;;13.00;99.90;;;;;;5053672;28;20573;-57
2023/04/29 00:24:44;;;;;;;29.43;20.40;;;13.00;99.90;;;;;;5053413;28;20983;-57
2023/04/29 00:27:11;;;;;;;27.90;21.83;;;13.00;99.90;;;;;;5053666;28;20454;-57
2023/04/29 00:29:38;;;;;;;27.83;20.00;;;13.00;99.90;;;;;;5053698;28;20481;-57
2023/04/29 00:32:05;;;;;;;34.83;24.03;;;13.10;99.90;;;;;;5053237;28;20449;-57
2023/04/29 00:34:32;;;;;;;31.77;23.77;;;13.20;99.90;;;;;;5053508;28;20478;-57
2023/04/29 00:36:58;;;;;;;32.87;24.50;;;13.20;99.90;;;;;;5053297;28;20951;-57
2023/04/29 00:39:27;;;;;;;33.40;24.90;;;13.20;99.90;;;;;;5053124;28;20947;-57
2023/04/29 00:41:53;;;;;;;33.13;26.27;;;13.20;99.90;;;;;;5052334;28;20454;-57
2023/04/29 00:44:20;;;;;;;34.80;26.57;;;13.20;99.90;;;;;;5053093;28;20523;-57
2023/04/29 00:46:47;;;;;;;32.40;24.30;;;13.30;99.90;;;;;;5053468;28;20453;-57
2023/04/29 00:49:14;;;;;;;33.27;25.70;;;13.30;99.90;;;;;;5053304;28;20453;-56
2023/04/29 00:51:41;;;;;;;31.67;26.03;;;13.40;99.90;;;;;;5054026;28;20458;-57
2023/04/29 00:54:10;;;;;;;34.33;27.03;;;13.50;99.90;;;;;;5052897;28;20979;-57
2023/04/29 00:56:41;;;;;;;33.43;27.73;;;13.50;99.90;;;;;;5053266;28;20530;-57
2023/04/29 00:59:11;;;;;;;38.00;29.80;;;13.50;99.90;;;;;;5053239;28;20457;-57
2023/04/29 01:01:38;;;;;;;44.00;30.73;;;13.40;99.90;;;;;;5053364;28;20433;-57
2023/04/29 01:04:06;;;;;;;49.03;35.13;;;13.40;99.90;;;;;;5053075;28;20492;-57
2023/04/29 01:06:45;;;;;;;48.90;34.80;;;13.40;99.90;;;;;;5053171;28;20453;-57
2023/04/29 01:09:29;;;;;;;55.43;36.43;;;13.10;99.90;;;;;;5052893;28;20465;-57
2023/04/29 01:12:08;;;;;;;52.67;36.03;;;12.90;99.90;;;;;;5053123;28;20469;-57
2023/04/29 01:14:37;;;;;;;56.17;37.07;;;12.80;99.90;;;;;;5052745;28;20986;-57
2023/04/29 01:17:10;;;;;;;56.97;38.63;;;12.80;99.90;;;;;;5053075;28;20454;-57
2023/04/29 01:19:45;;;;;;;61.07;38.30;;;12.60;99.90;;;;;;5053131;28;20434;-57
2023/04/29 01:22:13;;;;;;;65.10;39.17;;;12.60;99.90;;;;;;5052734;28;20472;-57
2023/04/29 01:24:41;;;;;;;61.87;38.90;;;12.70;99.90;;;;;;5052948;28;20505;-57
2023/04/29 01:27:17;;;;;;;61.30;40.00;;;12.70;99.90;;;;;;5052972;28;20446;-57
2023/04/29 01:29:51;;;;;;;65.27;42.13;;;12.70;99.90;;;;;;5052994;28;20481;-57
2023/04/29 01:32:23;;;;;;;67.00;41.03;;;12.70;99.90;;;;;;5052968;28;20850;-57
2023/04/29 01:35:00;;;;;;;64.37;42.03;;;12.70;99.90;;;;;;5053264;28;20456;-57
2023/04/29 01:37:35;;;;;;;66.53;42.40;;;12.70;99.90;;;;;;5052670;28;20852;-57
2023/04/29 01:40:12;;;;;;;64.50;41.87;;;12.70;99.90;;;;;;5052942;28;20429;-57
2023/04/29 01:42:44;;;;;;;61.37;39.73;;;12.60;99.90;;;;;;5052473;28;21005;-57
2023/04/29 01:45:14;;;;;;;67.10;42.10;;;12.70;99.90;;;;;;5052740;28;20501;-56
2023/04/29 01:47:41;;;;;;;75.53;44.73;;;12.60;99.90;;;;;;5052806;28;20449;-57
2023/04/29 01:50:09;;;;;;;73.20;45.53;;;12.70;99.90;;;;;;5052768;28;20449;-57
2023/04/29 01:52:36;;;;;;;68.17;43.57;;;12.60;99.90;;;;;;5052414;28;20938;-57
2023/04/29 01:55:03;;;;;;;74.43;44.33;;;12.60;99.90;;;;;;5055645;28;20501;-57
2023/04/29 01:57:31;;;;;;;72.87;46.33;;;12.60;99.90;;;;;;5057584;28;20477;-57
2023/04/29 01:59:58;;;;;;;74.33;43.53;;;12.70;99.90;;;;;;5057733;28;20445;-57
2023/04/29 02:02:25;;;;;;;75.37;45.17;;;12.70;99.90;;;;;;5057233;28;20476;-57
2023/04/29 02:04:51;;;;;;;66.10;41.93;;;12.70;99.90;;;;;;5056740;28;20511;-57
2023/04/29 02:07:18;;;;;;;73.60;45.17;;;12.70;99.90;;;;;;5056408;28;20448;-57
2023/04/29 02:09:45;;;;;;;71.37;44.63;;;12.70;99.90;;;;;;5056771;28;20453;-57
2023/04/29 02:12:12;;;;;;;75.57;46.00;;;12.60;99.90;;;;;;5056242;28;20454;-57
2023/04/29 02:14:40;;;;;;;69.10;46.17;;;12.60;99.90;;;;;;5056046;28;20474;-57
2023/04/29 02:17:06;;;;;;;72.13;46.57;;;12.60;99.90;;;;;;5056107;28;20456;-57
2023/04/29 02:19:33;;;;;;;86.57;48.23;;;12.50;99.90;;;;;;5056062;28;20456;-57
2023/04/29 02:22:00;;;;;;;72.80;47.80;;;12.50;99.90;;;;;;5056035;28;20477;-57
2023/04/29 02:24:26;;;;;;;74.87;47.93;;;12.50;99.90;;;;;;5055885;28;20485;-57
2023/04/29 02:26:53;;;;;;;75.87;49.37;;;12.50;99.90;;;;;;5056021;28;20947;-57
2023/04/29 02:29:20;;;;;;;78.60;47.93;;;12.40;99.90;;;;;;5055504;28;20848;-57
2023/04/29 02:31:48;;;;;;;76.47;48.97;;;12.40;99.90;;;;;;5055804;28;20452;-57
2023/04/29 02:34:14;;;;;;;78.67;48.10;;;12.50;99.90;;;;;;5055503;28;20465;-57
2023/04/29 02:36:41;;;;;;;78.67;43.50;;;12.60;99.90;;;;;;5055705;28;20483;-57
2023/04/29 02:39:08;;;;;;;76.33;43.10;;;12.60;99.90;;;;;;5055585;28;20454;-56
2023/04/29 02:41:34;;;;;;;89.80;46.27;;;12.60;99.90;;;;;;5055659;28;20504;-57
2023/04/29 02:44:01;;;;;;;80.87;41.77;;;12.70;99.90;;;;;;5055661;28;20488;-57
2023/04/29 02:46:28;;;;;;;82.57;42.53;;;12.70;99.90;;;;;;5055651;28;20449;-57
2023/04/29 02:48:56;;;;;;;79.43;43.13;;;12.70;99.90;;;;;;5055173;28;20973;-57
2023/04/29 02:51:22;;;;;;;74.97;41.67;;;12.80;99.90;;;;;;5055406;28;20491;-57
2023/04/29 02:53:49;;;;;;;88.00;42.70;;;12.80;99.90;;;;;;5055009;28;21041;-57
2023/04/29 02:56:16;;;;;;;67.60;38.70;;;12.80;99.90;;;;;;5055431;28;20481;-57
2023/04/29 02:58:43;;;;;;;65.77;36.50;;;12.90;99.90;;;;;;5055448;28;20441;-57
2023/04/29 03:01:10;;;;;;;64.37;35.37;;;12.80;99.90;;;;;;5055284;28;20472;-57
2023/04/29 03:03:36;;;;;;;58.23;34.50;;;12.90;99.90;;;;;;5055082;28;20489;-57
2023/04/29 03:06:05;;;;;;;64.33;34.00;;;12.80;99.90;;;;;;5054083;28;20456;-57
2023/04/29 03:08:31;;;;;;;55.53;33.90;;;12.80;99.90;;;;;;5055101;28;20472;-57
2023/04/29 03:10:58;;;;;;;58.73;33.27;;;12.80;99.90;;;;;;5055047;28;20499;-57
2023/04/29 03:13:25;;;;;;;54.17;33.03;;;12.70;99.90;;;;;;5054936;28;20469;-56
2023/04/29 03:15:51;;;;;;;49.37;30.10;;;12.70;99.90;;;;;;5054617;28;20970;-57
2023/04/29 03:18:18;;;;;;;54.10;32.30;;;12.60;99.90;;;;;;5054533;28;20830;-56
2023/04/29 03:20:45;;;;;;;52.33;30.47;;;12.60;99.90;;;;;;5054884;28;20484;-57
2023/04/29 03:23:13;;;;;;;52.80;32.67;;;12.60;99.90;;;;;;5054412;28;21002;-57
2023/04/29 03:25:40;;;;;;;43.83;29.20;;;12.60;99.90;;;;;;5054834;28;20453;-57
2023/04/29 03:28:07;;;;;;;47.17;29.27;;;12.60;99.90;;;;;;5054432;28;20502;-57
2023/04/29 03:30:34;;;;;;;42.17;29.60;;;12.60;99.90;;;;;;5054716;28;20454;-57
2023/04/29 03:33:00;;;;;;;45.53;30.60;;;12.60;99.90;;;;;;5055578;28;20809;-57
2023/04/29 03:35:27;;;;;;;47.10;30.03;;;12.60;99.90;;;;;;5054684;28;20449;-57
2023/04/29 03:37:54;;;;;;;45.20;28.90;;;12.50;99.90;;;;;;5054725;28;20450;-57
2023/04/29 03:40:22;;;;;;;46.87;27.23;;;12.50;99.90;;;;;;5054706;28;20524;-57
2023/04/29 03:42:49;;;;;;;46.37;28.70;;;12.50;99.90;;;;;;5054663;28;20453;-57
2023/04/29 03:45:16;;;;;;;44.43;29.17;;;12.50;99.90;;;;;;5054418;28;20477;-57
2023/04/29 03:47:43;;;;;;;46.33;29.00;;;12.50;99.90;;;;;;5054292;28;20458;-57
2023/04/29 03:50:10;;;;;;;46.07;29.70;;;12.50;99.90;;;;;;5054255;28;20528;-57
2023/04/29 03:52:37;;;;;;;47.17;30.23;;;12.50;99.90;;;;;;5053966;28;20935;-57
2023/04/29 03:55:04;;;;;;;44.63;29.23;;;12.50;99.90;;;;;;5054088;28;20478;-57
2023/04/29 03:57:32;;;;;;;48.20;32.20;;;12.30;99.90;;;;;;5054080;28;20461;-57
2023/04/29 03:59:59;;;;;;;47.13;29.17;;;12.30;99.90;;;;;;5054138;28;20507;-57
2023/04/29 04:02:26;;;;;;;47.77;29.93;;;12.30;99.90;;;;;;5053737;28;20970;-57
2023/04/29 04:04:53;;;;;;;47.77;29.17;;;12.30;99.90;;;;;;5053625;28;20536;-57
2023/04/29 04:07:20;;;;;;;49.10;30.07;;;12.20;99.90;;;;;;5053823;28;20456;-57
2023/04/29 04:09:47;;;;;;;47.80;30.03;;;12.30;99.90;;;;;;5053620;28;20842;-57
2023/04/29 04:12:14;;;;;;;46.63;28.90;;;12.30;99.90;;;;;;5053505;28;20866;-57
2023/04/29 04:14:42;;;;;;;45.97;29.50;;;12.30;99.90;;;;;;5053714;28;20497;-57
2023/04/29 04:17:09;;;;;;;44.30;29.93;;;12.30;99.90;;;;;;5053618;28;20799;-57
2023/04/29 04:19:35;;;;;;;47.13;29.30;;;12.30;99.90;;;;;;5053678;28;20540;-57
2023/04/29 04:22:03;;;;;;;46.30;28.73;;;12.30;99.90;;;;;;5053708;28;20454;-57
2023/04/29 04:24:30;;;;;;;41.13;26.83;;;12.40;99.90;;;;;;5053531;28;20492;-57
2023/04/29 04:26:57;;;;;;;43.60;26.80;;;12.40;99.90;;;;;;5053728;28;20446;-57
2023/04/29 04:29:23;;;;;;;36.07;25.47;;;12.40;99.90;;;;;;5053295;28;20985;-57
2023/04/29 04:31:51;;;;;;;38.90;24.63;;;12.30;99.90;;;;;;5053563;28;20449;-57
2023/04/29 04:34:18;;;;;;;35.20;24.53;;;12.40;99.90;;;;;;5053516;28;20461;-57
2023/04/29 04:36:45;;;;;;;34.20;24.60;;;12.40;99.90;;;;;;5053510;28;20446;-57
2023/04/29 04:39:11;;;;;;;38.53;24.10;;;12.40;99.90;;;;;;5053242;28;20508;-57
2023/04/29 04:41:38;;;;;;;38.07;25.93;;;12.40;99.90;;;;;;5053437;28;20450;-57
2023/04/29 04:44:05;;;;;;;36.17;23.33;;;12.40;99.90;;;;;;5053293;28;20493;-57
2023/04/29 04:46:32;;;;;;;31.73;23.27;;;12.30;99.90;;;;;;5053322;28;20449;-57
2023/04/29 04:49:00;;;;;;;34.20;24.37;;;12.40;99.90;;;;;;5053328;28;20445;-57
2023/04/29 04:51:27;;;;;;;36.43;22.97;;;12.20;99.90;;;;;;5053020;28;20449;-57
2023/04/29 04:53:54;;;;;;;35.80;24.63;;;12.30;99.90;;;;;;5053231;28;20472;-57
2023/04/29 04:56:21;;;;;;;34.17;23.80;;;12.20;99.90;;;;;;5054221;28;20446;-57
2023/04/29 04:58:48;;;;;;;37.43;32.00;;;12.20;99.90;;;;;;5054913;28;20450;-57
2023/04/29 05:01:14;;;;;;;33.03;25.37;;;12.30;99.90;;;;;;5054433;28;20441;-57
2023/04/29 05:03:41;;;;;;;32.33;22.40;;;12.40;99.90;;;;;;5053731;28;20482;-57
2023/04/29 05:06:09;;;;;;;31.00;21.70;;;12.30;99.90;;;;;;5053463;28;20449;-57
2023/04/29 05:08:36;;;;;;;30.20;20.77;;;12.30;99.90;;;;;;5053195;28;20488;-57
2023/04/29 05:11:02;;;;;;;28.77;21.30;;;12.30;99.90;;;;;;5053312;28;20574;-57
2023/04/29 05:13:29;;;;;;;25.63;20.57;;;12.30;99.90;;;;;;5053206;28;20477;-57
2023/04/29 05:15:56;;;;;;;27.20;18.93;;;12.40;99.90;;;;;;5053192;28;20480;-56
2023/04/29 05:18:22;;;;;;;26.10;19.93;;;12.40;99.90;;;;;;5053166;28;20481;-57
2023/04/29 05:20:49;;;;;;;27.20;20.43;;;12.50;99.90;;;;;;5052791;28;20449;-57
2023/04/29 05:23:17;;;;;;;24.17;18.73;;;12.40;99.90;;;;;;5052819;28;20445;-57
2023/04/29 05:25:44;;;;;;;27.00;20.63;;;12.40;99.90;;;;;;5052715;28;20957;-57
2023/04/29 05:28:10;;;;;;;28.17;21.13;;;12.40;99.90;;;;;;5053033;28;20861;-57
2023/04/29 05:30:37;;;;;;;28.70;20.57;;;12.40;99.90;;;;;;5056956;28;20457;-57
2023/04/29 05:33:04;;;;;;;28.23;20.27;;;12.40;99.90;;;;;;5056410;28;20536;-56
2023/04/29 05:35:31;;;;;;;26.20;19.90;;;12.50;99.90;;;;;;5056846;28;20454;-57
2023/04/29 05:37:57;;;;;;;27.03;19.40;;;12.50;99.90;;;;;;5056853;28;20457;-57
2023/04/29 05:40:26;;;;;;;29.17;22.53;;;12.50;99.90;;;;;;5056394;28;20817;-57
2023/04/29 05:42:52;;;;;;;30.53;22.50;;;12.50;99.90;;;;;;5056712;28;20458;-57
2023/04/29 05:45:19;;;;;;;27.20;20.70;;;12.50;99.90;;;;;;5056493;28;20489;-57
2023/04/29 05:47:45;;;;;;;28.40;22.40;;;12.50;99.90;;;;;;5056750;28;20469;-57
2023/04/29 05:50:12;;;;;;;26.70;20.70;;;12.60;99.90;;;;;;5056651;28;20446;-57
2023/04/29 05:52:39;;;;;;;29.57;21.43;;;12.60;99.90;;;;;;5056551;28;20445;-57
2023/04/29 05:55:06;;;;;;;29.13;21.67;;;12.60;99.90;;;;;;5056187;28;20473;-57
2023/04/29 05:57:34;;;;;;;25.07;20.00;;;12.60;99.90;;;;;;5056136;28;20950;-57
2023/04/29 06:00:02;;;;;;;28.20;21.37;;;12.60;99.90;;;;;;5056327;28;20481;-57
2023/04/29 06:02:29;;;;;;;27.37;20.60;;;12.50;99.90;;;;;;5056443;28;20472;-57
2023/04/29 06:04:56;;;;;;;26.67;20.93;;;12.50;99.90;;;;;;5056059;28;20481;-57
2023/04/29 06:07:23;;;;;;;26.57;20.33;;;12.50;99.90;;;;;;5056004;28;20453;-57
2023/04/29 06:09:50;;;;;;;27.07;21.07;;;12.50;99.90;;;;;;5056195;28;20465;-57
2023/04/29 06:12:17;;;;;;;29.63;21.33;;;12.60;99.90;;;;;;5056109;28;20964;-57
2023/04/29 06:14:45;;;;;;;27.57;21.70;;;12.60;99.90;;;;;;5056085;28;20465;-57
2023/04/29 06:17:12;;;;;;;28.50;20.77;;;12.60;99.90;;;;;;5056091;28;20487;-57
2023/04/29 06:19:38;;;;;;;26.10;20.30;;;12.70;99.90;;;;;;5056032;28;20450;-57
2023/04/29 06:22:05;;;;;;;29.93;21.10;;;12.70;99.90;;;;;;5055901;28;20456;-57
2023/04/29 06:24:32;;;;;;;24.77;19.70;;;12.70;99.90;;;;;;5055799;28;20488;-57
2023/04/29 06:26:58;;;;;;;23.23;18.87;;;12.70;99.90;;;;;;5056753;28;20902;-57
2023/04/29 06:29:25;;;;;;;26.57;20.60;;;12.80;99.90;;;;;;5055900;28;20864;-57
2023/04/29 06:31:54;;;;;;;26.37;20.10;;;12.80;99.90;;;;;;5056733;28;20841;-57
2023/04/29 06:34:21;;;;;;;28.77;20.50;;;12.80;99.90;;;;;;5055676;28;20561;-57
2023/04/29 06:36:48;;;;;;;25.87;19.27;;;12.90;99.90;;;;;;5055720;28;20446;-57
2023/04/29 06:39:15;;;;;;;27.37;20.13;;;13.00;99.90;;;;;;5055630;28;20454;-57
2023/04/29 06:41:42;;;;;;;22.80;19.23;;;13.10;99.90;;;;;;5055320;28;20460;-57
2023/04/29 06:44:09;;;;;;;24.70;17.93;;;13.20;99.90;;;;;;5055455;28;20485;-57
2023/04/29 06:46:35;;;;;;;28.87;20.13;;;13.20;99.90;;;;;;5055712;28;20449;-57
2023/04/29 06:49:03;;;;;;;21.83;17.40;;;13.30;99.90;;;;;;5055491;28;20442;-57
2023/04/29 06:51:31;;;;;;;27.17;18.63;;;13.30;99.90;;;;;;5055146;28;20799;-57
2023/04/29 06:53:57;;;;;;;21.70;18.20;;;13.30;99.90;;;;;;5055348;28;20472;-57
2023/04/29 06:56:24;;;;;;;18.90;15.63;;;13.20;99.90;;;;;;5055317;28;20449;-57
2023/04/29 06:58:51;;;;;;;20.43;16.10;;;13.20;99.90;;;;;;5054978;28;20460;-57
2023/04/29 07:01:17;;;;;;;17.63;14.53;;;13.20;99.90;;;;;;5055259;28;20485;-57
2023/04/29 07:03:44;;;;;;;22.80;17.53;;;13.20;99.90;;;;;;5055241;28;20473;-57
2023/04/29 07:06:12;;;;;;;19.87;15.20;;;13.20;99.90;;;;;;5055405;28;20445;-57
2023/04/29 07:08:39;;;;;;;20.63;15.57;;;13.20;99.90;;;;;;5055073;28;20462;-56
2023/04/29 07:11:06;;;;;;;16.93;14.40;;;13.20;99.90;;;;;;5055121;28;20536;-57
2023/04/29 07:13:32;;;;;;;18.77;15.20;;;13.20;99.90;;;;;;5055083;28;20466;-57
2023/04/29 07:15:59;;;;;;;23.17;15.77;;;13.30;99.90;;;;;;5055268;28;20453;-57
2023/04/29 07:18:26;;;;;;;18.87;15.80;;;13.30;99.90;;;;;;5055030;28;20456;-57
2023/04/29 07:20:54;;;;;;;21.67;15.73;;;13.30;99.90;;;;;;5054691;28;20449;-56
2023/04/29 07:23:22;;;;;;;20.13;15.70;;;13.40;99.90;;;;;;5054908;28;20477;-57
2023/04/29 07:25:49;;;;;;;18.20;13.50;;;13.40;99.90;;;;;;5054870;28;20493;-57
2023/04/29 07:28:16;;;;;;;22.70;15.67;;;13.40;99.90;;;;;;5054673;28;20456;-57
2023/04/29 07:30:42;;;;;;;18.30;13.83;;;13.40;99.90;;;;;;5054923;28;20456;-57
2023/04/29 07:33:09;;;;;;;16.50;13.80;;;13.40;99.90;;;;;;5054514;28;20943;-57
2023/04/29 07:35:36;;;;;;;18.50;14.60;;;13.50;99.90;;;;;;5054833;28;20450;-57
2023/04/29 07:38:02;;;;;;;17.20;14.57;;;13.50;99.90;;;;;;5054655;28;20451;-57
2023/04/29 07:40:30;;;;;;;18.20;14.80;;;13.50;99.90;;;;;;5054755;28;20457;-57
2023/04/29 07:42:57;;;;;;;18.63;12.80;;;13.50;99.70;;;;;;5055117;28;20449;-57
2023/04/29 07:45:24;;;;;;;16.03;13.83;;;13.50;99.40;;;;;;5054581;28;20930;-57
2023/04/29 07:47:50;;;;;;;16.03;12.67;;;13.50;99.40;;;;;;5054951;28;20798;-57
2023/04/29 07:50:17;;;;;;;15.33;13.70;;;13.50;99.20;;;;;;5056821;28;20452;-57
2023/04/29 07:52:44;;;;;;;14.50;12.50;;;13.60;99.10;;;;;;5059952;28;21068;-57
2023/04/29 07:55:10;;;;;;;15.30;13.03;;;13.80;99.10;;;;;;5060085;28;20463;-57
2023/04/29 07:57:38;;;;;;;19.53;14.10;;;13.90;99.20;;;;;;5057002;28;21001;-57
2023/04/29 08:00:07;;;;;;;18.97;13.20;;;14.00;99.00;;;;;;5056297;28;20446;-57
2023/04/29 08:02:33;;;;;;;12.67;11.37;;;14.10;98.40;;;;;;5055182;28;20453;-57
2023/04/29 08:05:01;;;;;;;16.93;12.90;;;14.30;98.10;;;;;;5054544;28;20482;-57
2023/04/29 08:07:27;;;;;;;14.93;12.53;;;14.30;97.60;;;;;;5054220;28;20507;-57
2023/04/29 08:09:54;;;;;;;15.37;12.03;;;14.40;97.20;;;;;;5054196;28;20438;-57
2023/04/29 08:12:21;;;;;;;15.77;12.27;;;14.40;97.20;;;;;;5055093;28;20449;-57
2023/04/29 08:14:49;;;;;;;14.87;12.53;;;14.50;97.00;;;;;;5054204;28;20461;-57
2023/04/29 08:17:15;;;;;;;15.10;13.50;;;14.50;96.40;;;;;;5053971;28;20453;-57
2023/04/29 08:19:42;;;;;;;16.80;13.57;;;14.40;96.60;;;;;;5053552;28;20450;-57
2023/04/29 08:22:10;;;;;;;16.20;12.87;;;14.40;96.50;;;;;;5053850;28;20449;-57
2023/04/29 08:24:36;;;;;;;14.73;13.10;;;14.40;96.20;;;;;;5053635;28;20538;-57
2023/04/29 08:27:03;;;;;;;17.80;13.27;;;14.50;96.50;;;;;;5053630;28;20445;-56
2023/04/29 08:29:32;;;;;;;14.40;12.90;;;14.60;96.70;;;;;;5053594;28;20461;-57
2023/04/29 08:32:00;;;;;;;15.27;13.47;;;14.60;96.60;;;;;;5053421;28;20453;-56
2023/04/29 08:34:27;;;;;;;18.50;13.67;;;14.80;96.70;;;;;;5053660;28;20473;-57
2023/04/29 08:36:53;;;;;;;19.23;15.10;;;15.00;96.50;;;;;;5053671;28;20449;-57
2023/04/29 08:39:20;;;;;;;14.17;12.70;;;15.10;95.50;;;;;;5053238;28;20954;-57
2023/04/29 08:41:50;;;;;;;14.77;12.27;;;15.20;95.50;;;;;;5053456;28;20809;-57
2023/04/29 08:44:17;;;;;;;13.77;12.23;;;15.40;95.00;;;;;;5053295;28;20882;-57
2023/04/29 08:46:45;;;;;;;15.20;13.60;;;15.60;94.80;;;;;;5053493;28;20453;-57
2023/04/29 08:49:13;;;;;;;14.33;12.67;;;15.80;94.30;;;;;;5053486;28;20481;-57
2023/04/29 08:51:40;;;;;;;17.13;12.67;;;16.00;93.50;;;;;;5053371;28;20450;-57
2023/04/29 08:54:07;;;;;;;15.97;12.97;;;16.10;92.40;;;;;;5053261;28;20519;-57
2023/04/29 08:56:34;;;;;;;12.63;11.23;;;16.20;92.40;;;;;;5053375;28;20477;-57
2023/04/29 08:59:03;;;;;;;12.50;11.10;;;16.20;92.00;;;;;;5052856;28;20973;-57
2023/04/29 09:01:30;;;;;;;16.47;12.70;;;16.40;92.20;;;;;;5053254;28;20453;-57
2023/04/29 09:04:09;;;;;;;16.47;13.33;;;16.60;92.00;;;;;;5054533;28;20465;-57
2023/04/29 09:06:38;;;;;;;14.10;12.63;;;16.70;91.30;;;;;;5057325;28;20496;-57
2023/04/29 09:09:06;;;;;;;14.53;12.73;;;16.70;90.60;;;;;;5056998;28;20475;-57
2023/04/29 09:11:34;;;;;;;13.97;12.53;;;16.70;90.70;;;;;;5057339;28;20445;-57
2023/04/29 09:14:03;;;;;;;15.40;12.30;;;16.60;90.30;;;;;;5057184;28;20465;-57
2023/04/29 09:16:31;;;;;;;14.43;12.57;;;16.50;90.10;;;;;;5056909;28;20544;-57
2023/04/29 09:18:57;;;;;;;13.93;12.50;;;16.40;90.40;;;;;;5057113;28;20446;-57
2023/04/29 09:21:26;;;;;;;12.67;11.47;;;16.30;90.60;;;;;;5057093;28;20456;-57
2023/04/29 09:23:56;;;;;;;13.00;11.57;;;16.30;91.00;;;;;;5057004;28;20502;-57
2023/04/29 09:26:23;;;;;;;15.67;12.90;;;16.10;91.20;;;;;;5057146;28;20474;-57
2023/04/29 09:29:06;;;;;;;12.27;10.90;;;16.00;91.20;;;;;;5057059;28;20481;-57
2023/04/29 09:31:33;;;;;;;16.93;13.30;;;16.00;91.40;;;;;;5057008;28;20429;-57
2023/04/29 09:34:00;;;;;;;16.67;14.03;;;15.90;91.50;;;;;;5057014;28;20523;-57
2023/04/29 09:36:40;;;;;;;15.00;13.40;;;15.90;91.70;;;;;;5056924;28;20442;-57
2023/04/29 09:39:11;;;;;;;15.93;13.27;;;15.80;91.70;;;;;;5056734;28;20995;-57
2023/04/29 09:41:43;;;;;;;18.23;15.40;;;15.80;92.00;;;;;;5056964;28;20449;-57
2023/04/29 09:44:10;;;;;;;15.73;14.13;;;15.80;92.40;;;;;;5056725;28;20523;-57
2023/04/29 09:46:37;;;;;;;17.70;14.90;;;15.70;92.00;;;;;;5056669;28;20550;-57
2023/04/29 09:49:05;;;;;;;18.07;16.07;;;15.60;92.10;;;;;;5056820;28;20452;-57
2023/04/29 09:51:32;;;;;;;24.70;16.70;;;15.50;92.30;;;;;;5056648;28;20455;-57
2023/04/29 09:54:00;;;;;;;18.47;15.37;;;15.40;93.30;;;;;;5056187;28;20484;-57
2023/04/29 09:56:29;;;;;;;22.87;18.30;;;15.40;93.40;;;;;;5056230;28;20441;-57
2023/04/29 09:58:57;;;;;;;20.37;18.27;;;15.20;93.60;;;;;;5056742;28;20449;-57
2023/04/29 10:01:27;;;;;;;23.97;19.60;;;15.10;93.50;;;;;;5056461;28;20449;-57
2023/04/29 10:03:56;;;;;;;18.33;16.30;;;15.00;93.60;;;;;;5056278;28;20471;-57
2023/04/29 10:06:24;;;;;;;23.50;18.30;;;14.90;93.90;;;;;;5056371;28;20484;-57
2023/04/29 10:08:51;;;;;;;24.20;18.57;;;14.80;94.20;;;;;;5055965;28;20461;-57
2023/04/29 10:11:18;;;;;;;22.80;18.83;;;14.80;94.60;;;;;;5056291;28;20460;-57
2023/04/29 10:13:48;;;;;;;23.00;18.70;;;14.80;94.90;;;;;;5056024;28;20987;-57
2023/04/29 10:16:27;;;;;;;27.20;18.77;;;14.80;95.00;;;;;;5055851;28;20499;-57
2023/04/29 10:18:55;;;;;;;22.90;18.00;;;14.90;94.90;;;;;;5056325;28;20442;-57
2023/04/29 10:21:27;;;;;;;24.57;20.70;;;15.00;95.00;;;;;;5056137;28;20453;-57
2023/04/29 10:23:56;;;;;;;22.73;19.33;;;15.00;95.00;;;;;;5056605;28;20466;-57
2023/04/29 10:26:26;;;;;;;24.90;19.93;;;15.10;94.90;;;;;;5056221;28;20496;-57
2023/04/29 10:28:55;;;;;;;25.27;20.10;;;15.10;94.70;;;;;;5056215;28;20438;-57
2023/04/29 10:31:25;;;;;;;22.10;17.87;;;15.20;94.80;;;;;;5055916;28;20457;-57
2023/04/29 10:33:54;;;;;;;26.63;20.40;;;15.40;94.80;;;;;;5055689;28;20464;-57
2023/04/29 10:36:22;;;;;;;24.50;20.37;;;15.50;94.90;;;;;;5055686;28;20502;-57
2023/04/29 10:38:52;;;;;;;26.10;21.33;;;15.70;94.80;;;;;;5055734;28;20449;-57
2023/04/29 10:41:23;;;;;;;26.33;20.30;;;15.70;94.00;;;;;;5055556;28;20499;-57
2023/04/29 10:43:50;;;;;;;21.67;18.70;;;15.70;93.70;;;;;;5055346;28;20987;-57
2023/04/29 10:46:20;;;;;;;24.13;19.60;;;15.70;93.70;;;;;;5055507;28;20492;-57
2023/04/29 10:48:48;;;;;;;29.27;21.13;;;15.80;93.60;;;;;;5056584;28;20949;-57
2023/04/29 10:51:30;;;;;;;27.47;22.10;;;15.80;93.50;;;;;;5056697;28;20905;-57
2023/04/29 10:54:01;;;;;;;29.50;19.50;;;15.80;93.40;;;;;;5056225;28;20465;-57
2023/04/29 10:56:39;;;;;;;23.10;19.63;;;15.90;93.20;;;;;;5055861;28;20450;-57
2023/04/29 10:59:09;;;;;;;27.40;22.17;;;16.00;93.20;;;;;;5055489;28;20456;-57
2023/04/29 11:01:48;;;;;;;26.70;20.23;;;16.00;93.00;;;;;;5055427;28;20442;-57
2023/04/29 11:04:15;;;;;;;23.83;21.10;;;16.00;92.80;;;;;;5055126;28;20857;-57
2023/04/29 11:06:46;;;;;;;22.10;19.37;;;16.10;92.60;;;;;;5055412;28;20477;-57
2023/04/29 11:09:15;;;;;;;21.17;18.97;;;16.10;92.60;;;;;;5054998;28;20489;-57
2023/04/29 11:11:57;;;;;;;23.77;19.13;;;16.00;92.50;;;;;;5055161;28;20445;-57
2023/04/29 11:14:26;;;;;;;22.93;17.60;;;16.00;92.80;;;;;;5054886;28;21037;-57
2023/04/29 11:16:57;;;;;;;21.53;18.60;;;16.00;92.70;;;;;;5055006;28;20488;-57
2023/04/29 11:19:25;;;;;;;24.13;19.70;;;16.00;92.60;;;;;;5055040;28;20484;-57
2023/04/29 11:22:08;;;;;;;26.17;21.80;;;16.10;92.70;;;;;;5054946;28;20476;-57
2023/04/29 11:24:35;;;;;;;25.87;21.33;;;16.10;92.90;;;;;;5054909;28;20535;-57
2023/04/29 11:27:03;;;;;;;24.70;20.03;;;16.10;93.20;;;;;;5053896;28;20485;-57
2023/04/29 11:29:30;;;;;;;26.30;20.80;;;16.10;92.70;;;;;;5054731;28;20453;-57
2023/04/29 11:32:00;;;;;;;23.67;20.67;;;16.20;92.60;;;;;;5054787;28;20511;-57
2023/04/29 11:34:27;;;;;;;27.87;20.03;;;16.30;92.50;;;;;;5054639;28;20474;-57
2023/04/29 11:36:53;;;;;;;20.47;17.63;;;16.40;92.10;;;;;;5054661;28;20481;-57
2023/04/29 11:39:20;;;;;;;23.97;20.27;;;16.50;91.90;;;;;;5054522;28;20457;-57
2023/04/29 11:41:47;;;;;;;20.13;17.47;;;16.50;91.90;;;;;;5054597;28;20453;-57
2023/04/29 11:44:13;;;;;;;28.90;20.30;;;16.60;91.90;;;;;;5055294;28;20477;-57
2023/04/29 11:46:40;;;;;;;26.50;19.03;;;16.60;91.80;;;;;;5054351;28;20480;-57
2023/04/29 11:49:08;;;;;;;26.07;20.30;;;16.70;91.00;;;;;;5054061;28;20445;-57
2023/04/29 11:51:35;;;;;;;22.30;19.60;;;16.70;90.90;;;;;;5054282;28;20460;-57
2023/04/29 11:54:01;;;;;;;23.13;20.40;;;16.70;91.20;;;;;;5054243;28;20472;-57
2023/04/29 11:56:28;;;;;;;22.90;18.90;;;16.90;91.30;;;;;;5054236;28;20445;-57
2023/04/29 11:58:56;;;;;;;24.50;20.90;;;17.00;90.70;;;;;;5054192;28;20456;-57
2023/04/29 12:01:22;;;;;;;27.33;21.93;;;17.10;90.40;;;;;;5054098;28;20495;-57
2023/04/29 12:03:50;;;;;;;23.33;20.53;;;17.30;90.40;;;;;;5053985;28;20465;-57
2023/04/29 12:06:18;;;;;;;23.73;20.80;;;17.40;89.30;;;;;;5053927;28;20525;-57
2023/04/29 12:08:47;;;;;;;25.90;23.10;;;17.40;88.60;;;;;;5053588;28;20469;-58
2023/04/29 12:11:14;;;;;;;25.17;22.47;;;17.50;88.30;;;;;;5053904;28;20461;-57
2023/04/29 12:13:41;;;;;;;30.73;20.90;;;17.60;88.50;;;;;;5053817;28;20477;-57
2023/04/29 12:16:08;;;;;;;22.73;17.90;;;17.70;88.40;;;;;;5053867;28;20453;-58
2023/04/29 12:18:36;;;;;;;21.03;18.50;;;17.90;88.30;;;;;;5053740;28;20452;-57
2023/04/29 12:21:02;;;;;;;23.00;20.60;;;18.10;88.00;;;;;;5053798;28;20490;-57
2023/04/29 12:23:30;;;;;;;21.97;19.67;;;18.40;86.40;;;;;;5053666;28;20480;-57
2023/04/29 12:25:59;;;;;;;19.77;17.70;;;18.50;83.90;;;;;;5053292;28;21030;-58
2023/04/29 12:28:27;;;;;;;22.97;20.00;;;18.60;81.90;;;;;;5053682;28;20449;-58
2023/04/29 12:30:55;;;;;;;23.10;20.60;;;18.70;81.60;;;;;;5053596;28;20451;-58